Time;durP1;ratioP1;P1;durP2;ratioP2;P2;SDS_P1;SDS_P2;PMS_P1;PMS_P2;Temp;Humidity;BMP_temperature;BMP_pressure;BME280_temperature;BME280_humidity;BME280_pressure;Samples;Min_cycle;Max_cycle;Signal;HPM_P1;HPM_P2
2023/07/23 00:01:12;;;;;;;7.90;3.47;;;;;;;17.91;100.00;100360.66;1461550;89;22393;-91
2023/07/23 00:03:38;;;;;;;6.70;3.27;;;;;;;17.91;100.00;100353.96;1443625;90;21705;-91
2023/07/23 00:06:04;;;;;;;5.70;3.30;;;;;;;17.90;100.00;100353.66;1434444;91;22374;-89
2023/07/23 00:08:31;;;;;;;4.67;3.40;;;;;;;17.89;100.00;100346.63;1432724;91;21408;-89
2023/07/23 00:10:58;;;;;;;5.03;3.63;;;;;;;17.85;100.00;100343.22;1433863;91;22596;-90
2023/07/23 00:13:25;;;;;;;5.07;4.07;;;;;;;17.83;100.00;100346.08;1443398;91;21333;-90
2023/07/23 00:15:52;;;;;;;7.30;3.90;;;;;;;17.82;100.00;100344.44;1458350;88;21510;-88
2023/07/23 00:18:18;;;;;;;5.87;3.10;;;;;;;17.77;100.00;100349.00;1462949;89;21562;-88
2023/07/23 00:20:44;;;;;;;15.13;6.43;;;;;;;17.76;100.00;100353.23;1465805;89;21451;-89
2023/07/23 00:23:10;;;;;;;7.23;4.70;;;;;;;17.73;100.00;100350.95;1465152;88;21443;-88
2023/07/23 00:25:36;;;;;;;10.20;3.50;;;;;;;17.70;100.00;100352.16;1464479;89;21576;-89
2023/07/23 00:28:03;;;;;;;6.27;3.97;;;;;;;17.67;100.00;100351.73;1461874;89;21385;-90
2023/07/23 00:30:29;;;;;;;8.23;3.90;;;;;;;17.66;100.00;100351.40;1465347;88;22337;-89
2023/07/23 00:32:56;;;;;;;6.43;4.50;;;;;;;17.64;100.00;100356.14;1462204;88;21442;-87
2023/07/23 00:35:23;;;;;;;4.20;3.40;;;;;;;17.65;100.00;100355.93;1465919;88;21547;-88
2023/07/23 00:37:49;;;;;;;6.20;4.97;;;;;;;17.69;100.00;100349.67;1480417;88;21392;-86
2023/07/23 00:40:16;;;;;;;5.47;3.70;;;;;;;17.74;100.00;100348.58;1469599;88;21384;-89
2023/07/23 00:42:42;;;;;;;4.57;3.80;;;;;;;17.77;100.00;100351.67;1469907;88;21302;-89
2023/07/23 00:45:09;;;;;;;10.10;4.07;;;;;;;17.83;100.00;100355.97;1472400;88;21369;-87
2023/07/23 00:47:35;;;;;;;7.00;3.63;;;;;;;17.85;100.00;100348.06;1472450;88;22459;-82
2023/07/23 00:50:03;;;;;;;6.87;4.37;;;;;;;17.88;100.00;100353.02;1465919;88;21391;-89
2023/07/23 00:52:30;;;;;;;5.90;4.50;;;;;;;17.90;100.00;100354.99;1473505;88;21376;-90
2023/07/23 00:54:56;;;;;;;7.57;4.40;;;;;;;17.89;100.00;100357.86;1466415;88;21340;-88
2023/07/23 00:57:23;;;;;;;8.30;4.30;;;;;;;17.91;100.00;100362.51;1465748;88;21621;-90
2023/07/23 00:59:49;;;;;;;8.57;4.03;;;;;;;17.94;100.00;100360.77;1464880;88;21413;-88
2023/07/23 01:02:15;;;;;;;4.37;3.77;;;;;;;17.97;100.00;100363.88;1476872;88;21495;-87
2023/07/23 01:04:41;;;;;;;7.33;4.33;;;;;;;17.97;100.00;100369.23;1458869;88;21355;-91
2023/07/23 01:07:08;;;;;;;6.93;4.20;;;;;;;17.95;100.00;100370.45;1474942;88;22338;-89
2023/07/23 01:09:36;;;;;;;7.00;4.43;;;;;;;17.92;100.00;100371.66;1475418;88;21318;-89
2023/07/23 01:12:05;;;;;;;4.57;3.83;;;;;;;17.84;100.00;100363.81;1469047;88;21570;-91
2023/07/23 01:14:32;;;;;;;10.53;4.93;;;;;;;17.77;100.00;100368.25;1469982;88;21642;-89
2023/07/23 01:16:59;;;;;;;7.40;4.90;;;;;;;17.73;100.00;100373.70;1461665;88;21362;-89
2023/07/23 01:19:26;;;;;;;8.50;4.37;;;;;;;17.70;100.00;100373.58;1455058;88;21524;-87
2023/07/23 01:22:06;;;;;;;12.00;4.43;;;;;;;17.67;100.00;100369.95;1470087;88;21378;-86
2023/07/23 01:24:35;;;;;;;6.83;4.92;;;;;;;17.66;100.00;100376.30;1470953;88;21428;-88
2023/07/23 01:27:04;;;;;;;6.73;4.73;;;;;;;17.62;100.00;100367.03;1464927;88;21384;-88
2023/07/23 01:29:30;;;;;;;6.13;5.13;;;;;;;17.62;100.00;100368.88;1462919;88;21957;-88
2023/07/23 01:31:56;;;;;;;8.67;5.30;;;;;;;17.60;100.00;100369.88;1453178;88;22152;-86
2023/07/23 01:34:24;;;;;;;9.17;4.67;;;;;;;17.59;100.00;100373.59;1463766;89;21370;-89
2023/07/23 01:36:51;;;;;;;5.10;4.57;;;;;;;17.60;100.00;100367.20;1462672;89;21303;-87
2023/07/23 01:39:17;;;;;;;5.27;4.10;;;;;;;17.60;100.00;100361.03;1465403;89;21325;-90
2023/07/23 01:41:43;;;;;;;8.40;5.00;;;;;;;17.60;100.00;100364.53;1461523;89;21347;-88
2023/07/23 01:44:09;;;;;;;8.43;4.20;;;;;;;17.56;100.00;100357.93;1461356;89;22384;-88
2023/07/23 01:46:35;;;;;;;6.20;4.33;;;;;;;17.50;100.00;100359.23;1436373;89;22537;-90
2023/07/23 01:49:02;;;;;;;6.97;5.23;;;;;;;17.45;100.00;100353.11;1461996;89;21370;-90
2023/07/23 01:51:28;;;;;;;7.13;4.57;;;;;;;17.43;100.00;100353.80;1460600;89;21472;-88
2023/07/23 01:53:54;;;;;;;8.73;4.50;;;;;;;17.42;100.00;100356.17;1462322;88;21443;-89
2023/07/23 01:56:20;;;;;;;8.97;4.40;;;;;;;17.45;100.00;100360.31;1454126;89;21377;-88
2023/07/23 01:58:46;;;;;;;8.27;4.83;;;;;;;17.41;100.00;100362.55;1461350;89;21955;-91
2023/07/23 02:01:12;;;;;;;7.00;5.13;;;;;;;17.35;100.00;100364.67;1455871;89;21340;-88
2023/07/23 02:03:39;;;;;;;13.30;5.00;;;;;;;17.28;100.00;100360.58;1469839;88;21376;-90
2023/07/23 02:06:05;;;;;;;5.03;4.53;;;;;;;17.22;100.00;100364.03;1465667;88;22323;-89
2023/07/23 02:08:33;;;;;;;6.17;4.60;;;;;;;17.18;100.00;100367.30;1463076;89;21598;-89
2023/07/23 02:11:01;;;;;;;7.90;4.43;;;;;;;17.14;100.00;100370.33;1466355;88;21348;-87
2023/07/23 02:13:29;;;;;;;5.47;4.20;;;;;;;17.12;100.00;100367.05;1448466;89;21517;-90
2023/07/23 02:15:55;;;;;;;7.03;5.03;;;;;;;17.04;100.00;100372.52;1458803;89;21546;-87
2023/07/23 02:18:22;;;;;;;4.33;3.77;;;;;;;17.00;100.00;100380.58;1455563;89;21392;-87
2023/07/23 02:20:49;;;;;;;5.37;3.93;;;;;;;16.94;100.00;100376.00;1467017;88;21340;-86
2023/07/23 02:23:16;;;;;;;5.93;3.83;;;;;;;16.91;100.00;100384.41;1459950;89;21504;-87
2023/07/23 02:25:43;;;;;;;5.87;4.53;;;;;;;16.91;100.00;100387.08;1461697;89;21377;-89
2023/07/23 02:28:11;;;;;;;5.30;4.43;;;;;;;16.90;100.00;100384.91;1462614;89;21371;-87
2023/07/23 02:30:37;;;;;;;5.40;4.27;;;;;;;16.83;100.00;100383.18;1465522;88;22352;-88
2023/07/23 02:33:04;;;;;;;8.40;3.87;;;;;;;16.75;100.00;100379.28;1470152;88;21421;-91
2023/07/23 02:35:32;;;;;;;9.73;4.47;;;;;;;16.68;100.00;100381.34;1473414;88;21457;-91
2023/07/23 02:38:02;;;;;;;6.80;4.40;;;;;;;16.58;100.00;100384.02;1471385;88;21479;-89
2023/07/23 02:40:33;;;;;;;7.73;4.37;;;;;;;16.48;100.00;100386.97;1461324;88;21613;-91
2023/07/23 02:42:59;;;;;;;;;;;;;;;16.41;100.00;100392.76;1476310;88;21607;-88
2023/07/23 02:45:25;;;;;;;6.47;3.50;;;;;;;16.34;100.00;100395.83;1466920;88;20299;-88
2023/07/23 02:47:51;;;;;;;4.83;3.53;;;;;;;16.27;100.00;100396.27;1471372;88;22234;-91
2023/07/23 02:50:17;;;;;;;5.93;3.90;;;;;;;16.19;100.00;100398.01;1467615;88;22582;-90
2023/07/23 02:52:43;;;;;;;4.10;3.47;;;;;;;16.15;100.00;100402.59;1470612;88;21384;-88
2023/07/23 02:55:09;;;;;;;9.03;3.10;;;;;;;16.15;100.00;100399.41;1470142;88;21377;-88
2023/07/23 02:57:36;;;;;;;6.60;3.50;;;;;;;16.15;100.00;100400.73;1472990;88;21569;-90
2023/07/23 03:00:02;;;;;;;6.30;4.33;;;;;;;16.14;100.00;100403.09;1461397;88;21354;-88
2023/07/23 03:02:31;;;;;;;6.23;3.87;;;;;;;16.14;100.00;100411.11;1469003;88;21517;-90
2023/07/23 03:04:57;;;;;;;4.40;4.00;;;;;;;16.14;100.00;100407.10;1467543;88;21442;-89
2023/07/23 03:07:23;;;;;;;12.37;5.20;;;;;;;16.15;100.00;100406.59;1473519;88;22301;-91
2023/07/23 03:09:50;;;;;;;4.97;4.53;;;;;;;16.15;100.00;100414.09;1462166;88;21317;-90
2023/07/23 03:12:16;;;;;;;5.93;4.53;;;;;;;16.17;100.00;100410.73;1472552;88;21915;-90
2023/07/23 03:14:42;;;;;;;5.57;4.73;;;;;;;16.19;100.00;100410.53;1473007;88;22405;-91
2023/07/23 03:17:10;;;;;;;5.17;4.53;;;;;;;16.19;100.00;100414.03;1466848;88;22948;-91
2023/07/23 03:19:36;;;;;;;8.17;5.13;;;;;;;16.20;100.00;100409.03;1469676;88;21317;-90
2023/07/23 03:22:03;;;;;;;6.67;5.20;;;;;;;16.21;100.00;100408.01;1469568;88;21530;-89
2023/07/23 03:24:29;;;;;;;8.57;6.13;;;;;;;16.21;100.00;100413.34;1472211;88;21491;-92
2023/07/23 03:26:55;;;;;;;7.97;5.77;;;;;;;16.18;100.00;100418.23;1466909;88;21495;-89
2023/07/23 03:29:22;;;;;;;9.13;5.80;;;;;;;16.13;100.00;100416.61;1481980;88;21340;-90
2023/07/23 03:31:48;;;;;;;8.70;6.57;;;;;;;16.10;100.00;100413.80;1467057;88;21558;-90
2023/07/23 03:34:14;;;;;;;6.37;5.77;;;;;;;16.10;100.00;100423.15;1468468;88;21392;-90
2023/07/23 03:36:40;;;;;;;8.73;5.53;;;;;;;16.10;100.00;100425.00;1474209;88;21473;-91
2023/07/23 03:39:08;;;;;;;8.67;7.00;;;;;;;16.11;100.00;100426.64;1464957;88;21719;-92
2023/07/23 03:41:34;;;;;;;7.00;6.30;;;;;;;16.14;100.00;100426.27;1464060;88;21370;-88
2023/07/23 03:44:01;;;;;;;6.00;5.40;;;;;;;16.19;100.00;100425.22;1474818;88;21317;-88
2023/07/23 03:46:27;;;;;;;14.63;7.40;;;;;;;16.28;100.00;100427.29;1462425;88;22389;-89
2023/07/23 03:48:53;;;;;;;7.23;5.60;;;;;;;16.33;100.00;100427.06;1471862;88;21443;-86
2023/07/23 03:51:20;;;;;;;7.57;6.10;;;;;;;16.40;100.00;100428.47;1462046;88;21706;-89
2023/07/23 03:53:46;;;;;;;8.47;7.10;;;;;;;16.44;100.00;100427.11;1473608;88;21317;-90
2023/07/23 03:56:14;;;;;;;6.43;5.27;;;;;;;16.46;100.00;100425.09;1470085;88;21565;-88
2023/07/23 03:58:41;;;;;;;6.07;5.47;;;;;;;16.48;100.00;100428.38;1465527;88;21464;-87
2023/07/23 04:01:07;;;;;;;7.87;5.53;;;;;;;16.53;100.00;100428.66;1477405;88;21318;-85
2023/07/23 04:03:33;;;;;;;10.83;7.03;;;;;;;16.59;100.00;100421.22;1471957;88;21391;-87
2023/07/23 04:05:59;;;;;;;7.43;5.60;;;;;;;16.67;100.00;100425.64;1467120;88;21575;-87
2023/07/23 04:08:25;;;;;;;7.23;6.33;;;;;;;16.74;100.00;100427.88;1469288;88;21325;-86
2023/07/23 04:10:55;;;;;;;11.43;7.33;;;;;;;16.82;100.00;100422.97;1470839;88;21348;-87
2023/07/23 04:13:21;;;;;;;7.90;6.55;;;;;;;16.91;100.00;100424.50;1466877;88;21413;-86
2023/07/23 04:15:47;;;;;;;10.90;6.70;;;;;;;17.00;100.00;100424.70;1465231;88;21384;-90
2023/07/23 04:18:14;;;;;;;8.23;5.70;;;;;;;17.09;100.00;100428.08;1473699;88;21457;-84
2023/07/23 04:20:41;;;;;;;14.73;6.00;;;;;;;17.19;100.00;100425.11;1472174;88;21354;-85
2023/07/23 04:23:07;;;;;;;10.47;6.27;;;;;;;17.29;100.00;100422.92;1469007;88;22176;-85
2023/07/23 04:25:34;;;;;;;9.07;6.10;;;;;;;17.38;100.00;100424.47;1471424;88;21576;-83
2023/07/23 04:28:00;;;;;;;8.00;6.37;;;;;;;17.46;100.00;100428.33;1468636;88;21429;-85
2023/07/23 04:30:30;;;;;;;11.00;6.03;;;;;;;17.54;100.00;100426.86;1468822;88;22168;-83
2023/07/23 04:32:57;;;;;;;10.65;6.22;;;;;;;17.63;100.00;100429.40;1468531;88;22338;-93
2023/07/23 04:35:23;;;;;;;9.50;6.53;;;;;;;17.68;100.00;100435.01;1464966;88;21421;-93
2023/07/23 04:37:50;;;;;;;9.43;5.87;;;;;;;17.75;100.00;100433.19;1464589;88;21466;-91
2023/07/23 04:40:16;;;;;;;7.43;5.67;;;;;;;17.79;100.00;100437.19;1466695;88;21399;-94
2023/07/23 04:42:42;;;;;;;7.73;5.80;;;;;;;17.80;100.00;100441.50;1473051;88;21377;-93
2023/07/23 04:45:09;;;;;;;5.90;5.03;;;;;;;17.83;100.00;100442.45;1469202;88;22654;-93
2023/07/23 04:47:38;;;;;;;5.80;4.83;;;;;;;17.94;100.00;100449.95;1464334;88;21355;-89
2023/07/23 04:50:06;;;;;;;7.80;5.70;;;;;;;18.06;100.00;100449.41;1456242;88;21406;-87
2023/07/23 04:52:34;;;;;;;7.83;5.53;;;;;;;18.15;100.00;100454.92;1464949;88;21415;-88
2023/07/23 04:55:02;;;;;;;6.97;5.27;;;;;;;18.27;100.00;100450.70;1459295;88;21451;-88
2023/07/23 04:57:29;;;;;;;9.48;5.33;;;;;;;18.36;100.00;100449.50;1465863;88;21348;-87
2023/07/23 04:59:55;;;;;;;7.58;4.85;;;;;;;18.44;100.00;100448.00;1464327;88;21488;-90
2023/07/23 05:02:21;;;;;;;8.18;4.95;;;;;;;18.49;100.00;100456.25;1445672;88;21334;-84
2023/07/23 05:04:48;;;;;;;8.90;5.62;;;;;;;18.57;100.00;100451.25;1467462;88;21490;-91
2023/07/23 05:07:15;;;;;;;8.98;4.70;;;;;;;18.68;100.00;100457.91;1482978;88;21311;-89
2023/07/23 05:09:43;;;;;;;9.10;5.17;;;;;;;18.75;100.00;100458.77;1475186;88;21688;-87
2023/07/23 05:12:09;;;;;;;9.83;5.28;;;;;;;18.84;100.00;100458.08;1453726;88;21614;-90
2023/07/23 05:14:35;;;;;;;7.87;5.25;;;;;;;18.94;100.00;100454.52;1470568;88;21644;-80
2023/07/23 05:17:02;;;;;;;7.97;4.45;;;;;;;18.99;100.00;100457.92;1466708;88;21385;-82
2023/07/23 05:19:28;;;;;;;10.63;4.87;;;;;;;19.04;100.00;100461.65;1467963;88;21532;-82
2023/07/23 05:21:54;;;;;;;8.10;4.25;;;;;;;19.10;100.00;100464.04;1470123;88;21716;-80
2023/07/23 05:24:21;;;;;;;5.75;4.10;;;;;;;19.21;100.00;100466.12;1470080;88;22523;-80
2023/07/23 05:26:47;;;;;;;9.95;5.40;;;;;;;19.24;100.00;100459.53;1472527;88;21421;-81
2023/07/23 05:29:13;;;;;;;6.25;4.42;;;;;;;19.36;100.00;100468.63;1449037;88;21347;-81
2023/07/23 05:31:40;;;;;;;12.33;4.87;;;;;;;19.48;100.00;100469.70;1469167;88;21450;-80
2023/07/23 05:34:06;;;;;;;5.95;4.67;;;;;;;19.58;100.00;100470.63;1465600;88;21543;-81
2023/07/23 05:36:32;;;;;;;9.63;4.70;;;;;;;19.68;100.00;100464.37;1427480;88;21436;-80
2023/07/23 05:38:58;;;;;;;5.75;4.30;;;;;;;19.82;100.00;100470.06;1472024;88;21565;-81
2023/07/23 05:41:25;;;;;;;8.53;4.45;;;;;;;19.94;100.00;100466.22;1472738;88;21318;-81
2023/07/23 05:43:51;;;;;;;10.05;4.25;;;;;;;20.05;100.00;100465.59;1466355;88;21472;-80
2023/07/23 05:46:17;;;;;;;9.23;5.22;;;;;;;20.08;100.00;100468.35;1465974;88;21627;-80
2023/07/23 05:48:43;;;;;;;8.70;4.53;;;;;;;20.14;100.00;100472.92;1465142;88;21489;-81
2023/07/23 05:51:10;;;;;;;6.62;4.47;;;;;;;20.31;100.00;100473.80;1450585;88;21354;-82
2023/07/23 05:53:36;;;;;;;4.83;3.70;;;;;;;20.46;100.00;100474.39;1469682;88;22373;-81
2023/07/23 05:56:02;;;;;;;8.45;3.77;;;;;;;20.55;100.00;100474.50;1464250;88;22441;-81
2023/07/23 05:58:29;;;;;;;6.78;4.53;;;;;;;20.63;100.00;100478.80;1463815;88;21614;-81
2023/07/23 06:00:55;;;;;;;4.72;3.45;;;;;;;20.77;100.00;100473.67;1467627;88;22395;-80
2023/07/23 06:03:22;;;;;;;7.78;4.15;;;;;;;20.90;100.00;100483.56;1466501;88;22000;-81
2023/07/23 06:05:48;;;;;;;10.00;5.95;;;;;;;20.98;100.00;100480.63;1469212;88;21428;-81
2023/07/23 06:08:14;;;;;;;6.30;3.33;;;;;;;20.94;100.00;100484.77;1449380;88;21368;-80
2023/07/23 06:10:41;;;;;;;12.03;3.60;;;;;;;21.01;100.00;100488.27;1451118;88;21487;-81
2023/07/23 06:13:09;;;;;;;9.83;3.65;;;;;;;21.04;100.00;100489.19;1470111;88;21436;-81
2023/07/23 06:15:36;;;;;;;6.83;3.50;;;;;;;21.09;100.00;100486.69;1468200;88;22467;-82
2023/07/23 06:18:02;;;;;;;4.83;3.58;;;;;;;21.26;100.00;100485.66;1471805;88;21377;-81
2023/07/23 06:20:28;;;;;;;7.03;4.30;;;;;;;21.39;100.00;100480.20;1472501;88;22462;-81
2023/07/23 06:22:55;;;;;;;5.85;3.60;;;;;;;21.45;100.00;100485.23;1427535;88;21458;-81
2023/07/23 06:25:21;;;;;;;6.62;4.05;;;;;;;21.53;100.00;100482.28;1470683;88;21443;-80
2023/07/23 06:27:48;;;;;;;8.75;3.87;;;;;;;21.66;100.00;100487.27;1462783;88;21631;-81
2023/07/23 06:30:14;;;;;;;6.25;3.55;;;;;;;21.71;100.00;100490.12;1449610;88;21347;-81
2023/07/23 06:32:41;;;;;;;7.95;3.70;;;;;;;21.78;100.00;100480.11;1468993;88;21466;-81
2023/07/23 06:35:10;;;;;;;4.47;3.45;;;;;;;21.79;100.00;100492.56;1445926;89;21555;-82
2023/07/23 06:37:35;;;;;;;9.33;3.50;;;;;;;21.88;100.00;100481.80;1437173;91;22511;-81
2023/07/23 06:40:02;;;;;;;18.00;4.40;;;;;;;22.02;100.00;100483.86;1423323;91;21355;-81
2023/07/23 06:42:28;;;;;;;7.70;4.22;;;;;;;22.12;100.00;100483.34;1436028;91;21385;-82
2023/07/23 06:44:55;;;;;;;10.60;3.60;;;;;;;22.22;100.00;100485.05;1430196;91;21423;-82
2023/07/23 06:47:21;;;;;;;7.22;4.00;;;;;;;22.33;100.00;100482.97;1461454;89;21399;-80
2023/07/23 06:49:47;;;;;;;6.33;3.87;;;;;;;22.34;100.00;100483.78;1463765;88;22412;-82
2023/07/23 06:52:14;;;;;;;4.75;3.33;;;;;;;22.41;100.00;100481.83;1463307;89;21401;-81
2023/07/23 06:54:42;;;;;;;6.22;3.42;;;;;;;22.46;100.00;100492.77;1438935;89;21399;-82
2023/07/23 06:57:09;;;;;;;6.90;3.65;;;;;;;22.46;100.00;100487.38;1440507;90;22795;-81
2023/07/23 06:59:35;;;;;;;5.72;4.05;;;;;;;22.47;100.00;100491.22;1431222;91;21644;-80
2023/07/23 07:02:02;;;;;;;16.00;3.72;;;;;;;22.49;100.00;100487.74;1464765;88;21326;-81
2023/07/23 07:04:28;;;;;;;8.58;3.55;;;;;;;22.55;100.00;100485.20;1459994;89;21369;-81
2023/07/23 07:06:54;;;;;;;4.37;3.60;;;;;;;22.63;100.00;100481.68;1462193;88;21621;-81
2023/07/23 07:09:21;;;;;;;4.58;3.40;;;;;;;22.78;100.00;100478.59;1439732;90;21406;-81
2023/07/23 07:11:49;;;;;;;8.80;4.58;;;;;;;22.96;100.00;100479.14;1404404;93;22249;-81
2023/07/23 07:14:15;;;;;;;6.55;3.67;;;;;;;23.16;100.00;100484.23;1425812;91;21475;-82
2023/07/23 07:16:41;;;;;;;6.08;3.47;;;;;;;23.34;100.00;100484.20;1421011;91;21400;-81
2023/07/23 07:19:07;;;;;;;6.00;4.20;;;;;;;23.51;100.00;100478.97;1456719;88;21415;-82
2023/07/23 07:21:33;;;;;;;6.28;3.45;;;;;;;23.59;99.75;100479.14;1463709;89;21502;-82
2023/07/23 07:24:00;;;;;;;8.73;3.90;;;;;;;23.68;99.36;100476.41;1466910;89;21577;-83
2023/07/23 07:26:26;;;;;;;9.98;3.35;;;;;;;23.74;99.65;100478.75;1449065;89;21903;-81
2023/07/23 07:28:52;;;;;;;4.70;3.52;;;;;;;23.86;99.13;100486.33;1462827;89;21481;-81
2023/07/23 07:31:18;;;;;;;10.35;4.87;;;;;;;23.96;98.03;100489.80;1447815;89;21377;-82
2023/07/23 07:33:45;;;;;;;9.08;3.60;;;;;;;24.02;96.61;100479.39;1468287;88;22545;-81
2023/07/23 07:36:11;;;;;;;5.55;3.27;;;;;;;24.04;96.30;100480.80;1469884;88;22448;-81
2023/07/23 07:38:37;;;;;;;7.62;3.45;;;;;;;24.13;96.92;100479.92;1469334;88;21532;-79
2023/07/23 07:41:04;;;;;;;6.67;3.92;;;;;;;24.19;95.98;100480.32;1464556;88;21406;-81
2023/07/23 07:43:30;;;;;;;6.12;3.52;;;;;;;24.38;96.54;100491.02;1465339;88;21450;-81
2023/07/23 07:46:00;;;;;;;10.78;3.70;;;;;;;24.58;96.46;100488.78;1467421;88;21510;-81
2023/07/23 07:48:27;;;;;;;;;;;;;;;24.73;95.57;100493.69;1391791;88;21326;-81
2023/07/23 07:51:03;;;;;;;6.15;3.10;;;;;;;24.75;92.98;100501.86;1399614;88;20828;-81
2023/07/23 07:53:31;;;;;;;7.70;3.12;;;;;;;24.64;89.22;100506.77;1552537;88;21414;-82
2023/07/23 07:55:58;;;;;;;6.97;3.35;;;;;;;24.76;90.86;100507.55;1391815;88;21304;-82
2023/07/23 07:58:25;;;;;;;5.58;2.92;;;;;;;24.85;89.34;100504.47;1392705;88;22192;-81
2023/07/23 08:00:57;;;;;;;7.70;2.95;;;;;;;24.94;85.95;100503.02;1398290;88;21274;-81
2023/07/23 08:03:25;;;;;;;7.42;3.10;;;;;;;25.00;86.64;100507.47;1502338;88;21452;-80
2023/07/23 08:05:53;;;;;;;4.00;2.90;;;;;;;25.13;86.62;100505.84;1466749;88;21496;-82
2023/07/23 08:08:32;;;;;;;5.58;3.30;;;;;;;25.16;85.50;100509.45;1392000;89;21524;-83
2023/07/23 08:11:01;;;;;;;3.87;3.05;;;;;;;25.24;84.92;100511.49;1553054;88;21252;-82
2023/07/23 08:13:27;;;;;;;7.70;3.52;;;;;;;25.41;86.02;100515.06;1519873;90;21339;-82
2023/07/23 08:15:55;;;;;;;7.33;2.92;;;;;;;25.56;85.01;100516.67;1393016;88;21385;-82
2023/07/23 08:18:22;;;;;;;4.45;3.30;;;;;;;25.66;81.46;100513.30;1392042;88;21957;-82
2023/07/23 08:20:49;;;;;;;10.70;3.00;;;;;;;25.71;82.39;100509.87;1393826;88;21223;-83
2023/07/23 08:23:16;;;;;;;3.70;3.12;;;;;;;25.82;81.25;100511.69;1393425;88;21200;-82
2023/07/23 08:25:45;;;;;;;5.15;2.83;;;;;;;25.86;79.62;100501.47;1392998;88;21384;-82
2023/07/23 08:28:15;;;;;;;3.35;3.05;;;;;;;25.96;78.51;100502.18;1553711;88;21303;-80
2023/07/23 08:30:41;;;;;;;5.87;2.90;;;;;;;26.03;79.04;100508.23;1378058;90;21392;-81
2023/07/23 08:33:10;;;;;;;5.90;2.80;;;;;;;26.06;79.48;100504.21;1399604;88;22332;-82
2023/07/23 08:35:37;;;;;;;5.25;2.77;;;;;;;26.13;78.76;100501.35;1392396;88;21244;-80
2023/07/23 08:38:03;;;;;;;8.00;2.70;;;;;;;26.24;78.62;100493.11;1392882;88;21490;-82
2023/07/23 08:40:33;;;;;;;5.53;3.22;;;;;;;26.36;77.89;100490.83;1393597;88;21449;-81
2023/07/23 08:43:30;;;;;;;3.67;2.80;;;;;;;26.53;76.40;100492.98;1552675;88;21296;-81
2023/07/23 08:46:14;;;;;;;9.08;3.30;;;;;;;26.63;75.08;100489.56;1459016;88;21533;-81
2023/07/23 08:49:05;;;;;;;4.25;3.37;;;;;;;26.77;75.16;100487.57;1553520;88;21341;-80
2023/07/23 08:51:45;;;;;;;5.47;3.15;;;;;;;26.92;74.67;100484.20;1501766;88;21533;-80
2023/07/23 08:54:12;;;;;;;;;;;;;;;27.09;74.21;100483.30;1470191;88;21518;-82
2023/07/23 08:56:41;;;;;;;7.83;2.58;;;;;;;27.28;74.77;100491.42;1446843;88;20870;-82
2023/07/23 08:59:08;;;;;;;9.03;3.37;;;;;;;27.41;73.43;100492.34;1459823;88;21436;-81
2023/07/23 09:01:39;;;;;;;7.25;3.40;;;;;;;27.54;72.88;100491.66;1465670;89;21540;-81
2023/07/23 09:04:11;;;;;;;4.12;2.62;;;;;;;27.61;71.54;100493.61;1468755;88;22322;-82
2023/07/23 09:06:39;;;;;;;6.55;2.98;;;;;;;27.61;70.79;100495.78;1472317;88;21487;-82
2023/07/23 09:09:08;;;;;;;4.25;2.85;;;;;;;27.52;68.32;100491.09;1476183;88;21385;-81
2023/07/23 09:11:36;;;;;;;6.30;3.20;;;;;;;27.50;66.73;100490.52;1471653;88;22770;-82
2023/07/23 09:14:13;;;;;;;4.72;3.02;;;;;;;27.19;63.60;100488.34;1468665;88;21517;-83
2023/07/23 09:16:43;;;;;;;7.37;2.80;;;;;;;27.34;64.88;100493.64;1466356;88;21495;-82
2023/07/23 09:19:12;;;;;;;8.35;3.02;;;;;;;27.56;65.89;100496.27;1389311;88;21414;-83
2023/07/23 09:21:41;;;;;;;5.00;3.50;;;;;;;27.76;64.89;100494.27;1455061;88;21384;-81
2023/07/23 09:24:13;;;;;;;5.15;3.00;;;;;;;27.95;64.89;100490.09;1468343;88;21317;-81
2023/07/23 09:26:40;;;;;;;9.43;2.67;;;;;;;27.99;64.00;100491.20;1469425;88;21533;-82
2023/07/23 09:29:11;;;;;;;7.00;2.58;;;;;;;28.15;64.62;100497.58;1472179;88;22315;-83
2023/07/23 09:31:44;;;;;;;3.80;2.52;;;;;;;28.22;60.75;100502.23;1397444;88;21274;-83
2023/07/23 09:34:11;;;;;;;7.10;2.98;;;;;;;28.32;59.65;100499.58;1445297;88;21356;-83
2023/07/23 09:36:37;;;;;;;3.33;2.83;;;;;;;28.50;58.08;100501.60;1374502;89;21185;-83
2023/07/23 09:39:07;;;;;;;4.15;2.70;;;;;;;28.56;57.80;100501.35;1373977;90;21594;-81
2023/07/23 09:41:38;;;;;;;6.05;3.00;;;;;;;28.56;42.65;100497.81;1373894;89;21389;-82
2023/07/23 09:44:12;;;;;;;5.42;4.17;;;;;;;28.60;42.86;100494.86;1529025;89;21172;-83
2023/07/23 09:46:42;;;;;;;6.67;2.80;;;;;;;28.49;41.25;100499.98;1421152;89;21341;-83
2023/07/23 09:49:08;;;;;;;;;;;;;;;28.58;40.82;100496.20;1377960;90;21477;-83
2023/07/23 09:51:36;;;;;;;2.90;2.60;;;;;;;28.72;42.20;100494.08;1372753;90;20350;-84
2023/07/23 09:54:04;;;;;;;6.37;2.90;;;;;;;28.80;41.77;100487.31;1373163;90;21556;-83
2023/07/23 09:56:38;;;;;;;5.00;3.08;;;;;;;28.77;41.52;100495.47;1369988;90;21275;-82
2023/07/23 09:59:02;;;;;;;4.83;3.27;;;;;;;28.76;41.14;100497.08;1515039;90;21422;-83
2023/07/23 10:01:28;;;;;;;8.63;2.65;;;;;;;28.88;41.36;100492.21;1356216;91;21410;-82
2023/07/23 10:03:57;;;;;;;3.67;2.67;;;;;;;28.99;40.67;100491.70;1510391;89;21267;-82
2023/07/23 10:06:24;;;;;;;5.35;2.92;;;;;;;29.01;39.71;100494.98;1361768;90;21348;-81
2023/07/23 10:08:51;;;;;;;3.55;2.95;;;;;;;29.09;40.12;100490.93;1362434;90;21230;-82
2023/07/23 10:11:19;;;;;;;5.60;2.77;;;;;;;29.18;39.82;100492.88;1363518;91;21260;-83
2023/07/23 10:13:49;;;;;;;7.25;2.60;;;;;;;29.29;39.74;100494.23;1339015;93;21430;-83
2023/07/23 10:16:23;;;;;;;7.45;3.02;;;;;;;29.38;39.04;100487.19;1360181;91;21408;-83
2023/07/23 10:18:51;;;;;;;3.60;2.42;;;;;;;29.42;38.88;100490.45;1515775;90;21282;-83
2023/07/23 10:21:21;;;;;;;4.72;3.02;;;;;;;29.41;38.41;100490.73;1361293;91;22192;-83
2023/07/23 10:23:57;;;;;;;2.87;2.50;;;;;;;29.38;37.50;100496.73;1367100;90;22228;-82
2023/07/23 10:26:33;;;;;;;2.90;2.60;;;;;;;29.40;38.02;100495.89;1425581;91;21289;-83
2023/07/23 10:29:14;;;;;;;4.05;2.80;;;;;;;29.48;38.95;100495.91;1364125;92;21660;-82
2023/07/23 10:31:44;;;;;;;2.80;2.17;;;;;;;29.52;38.46;100488.29;1492706;90;21451;-83
2023/07/23 10:34:30;;;;;;;4.28;3.15;;;;;;;29.61;38.17;100488.01;1370117;91;21407;-83
2023/07/23 10:37:18;;;;;;;3.42;2.60;;;;;;;29.66;38.04;100489.41;1515770;90;21338;-83
2023/07/23 10:39:52;;;;;;;3.23;2.63;;;;;;;29.62;36.89;100492.91;1362923;91;21289;-83
2023/07/23 10:42:38;;;;;;;5.10;2.70;;;;;;;29.55;37.11;100490.47;1505596;91;21252;-82
2023/07/23 10:45:18;;;;;;;5.15;2.40;;;;;;;29.64;37.80;100488.86;1360982;91;21489;-83
2023/07/23 10:47:54;;;;;;;5.55;2.77;;;;;;;29.64;37.55;100476.59;1508712;90;21385;-84
2023/07/23 10:50:21;;;;;;;3.52;2.35;;;;;;;29.75;37.38;100487.47;1515581;90;22199;-83
2023/07/23 10:52:52;;;;;;;4.70;2.77;;;;;;;29.82;37.57;100479.84;1363539;91;21436;-83
2023/07/23 10:55:47;;;;;;;7.00;2.70;;;;;;;29.89;37.00;100481.73;1361448;90;21305;-83
2023/07/23 10:58:17;;;;;;;4.42;2.33;;;;;;;29.83;36.18;100481.47;1516287;90;21157;-82
2023/07/23 11:00:47;;;;;;;7.08;2.20;;;;;;;29.85;35.90;100471.11;1508781;90;21430;-82
2023/07/23 11:03:16;;;;;;;2.70;2.50;;;;;;;29.99;35.62;100479.00;1360533;90;21274;-81
2023/07/23 11:05:43;;;;;;;3.25;2.67;;;;;;;30.02;35.62;100475.72;1359586;90;22118;-82
2023/07/23 11:08:25;;;;;;;7.78;2.80;;;;;;;30.05;35.57;100480.63;1363002;90;21385;-83
2023/07/23 11:10:58;;;;;;;2.80;2.50;;;;;;;30.05;35.00;100478.44;1515803;90;21149;-82
2023/07/23 11:13:27;;;;;;;6.17;2.27;;;;;;;30.09;35.14;100476.23;1359689;91;22125;-82
2023/07/23 11:15:55;;;;;;;7.75;2.62;;;;;;;30.11;35.25;100469.96;1360960;90;21604;-83
2023/07/23 11:18:22;;;;;;;7.97;2.25;;;;;;;30.17;35.43;100473.50;1376346;90;21443;-82
2023/07/23 11:20:52;;;;;;;5.67;2.67;;;;;;;30.26;35.92;100477.87;1435512;90;22413;-82
2023/07/23 11:23:22;;;;;;;3.02;2.65;;;;;;;30.27;35.34;100468.61;1360023;90;22073;-82